sensor_id;sensor_type;location;lat;lon;timestamp;P1;durP1;ratioP1;P2;durP2;ratioP2
54416;SDS011;40326;51.220;7.250;2023-02-26T00:01:50;5.88;;;2.13;;
54416;SDS011;40326;51.220;7.250;2023-02-26T00:04:15;9.75;;;3.90;;
54416;SDS011;40326;51.220;7.250;2023-02-26T00:06:41;7.78;;;2.42;;
54416;SDS011;40326;51.220;7.250;2023-02-26T00:09:19;9.73;;;2.60;;
54416;SDS011;40326;51.220;7.250;2023-02-26T00:11:44;5.35;;;2.33;;
54416;SDS011;40326;51.220;7.250;2023-02-26T00:14:10;8.15;;;2.50;;
54416;SDS011;40326;51.220;7.250;2023-02-26T00:16:37;6.65;;;2.65;;
54416;SDS011;40326;51.220;7.250;2023-02-26T00:19:03;4.75;;;2.40;;
54416;SDS011;40326;51.220;7.250;2023-02-26T00:21:29;8.13;;;2.67;;
54416;SDS011;40326;51.220;7.250;2023-02-26T00:23:55;9.80;;;3.13;;
54416;SDS011;40326;51.220;7.250;2023-02-26T00:26:20;6.22;;;2.40;;
54416;SDS011;40326;51.220;7.250;2023-02-26T00:28:46;8.45;;;2.22;;
54416;SDS011;40326;51.220;7.250;2023-02-26T00:31:12;5.07;;;2.15;;
54416;SDS011;40326;51.220;7.250;2023-02-26T00:33:38;8.38;;;2.63;;
54416;SDS011;40326;51.220;7.250;2023-02-26T00:38:34;4.43;;;2.30;;
54416;SDS011;40326;51.220;7.250;2023-02-26T00:41:00;8.40;;;2.22;;
54416;SDS011;40326;51.220;7.250;2023-02-26T00:43:25;9.35;;;2.45;;
54416;SDS011;40326;51.220;7.250;2023-02-26T00:46:11;6.40;;;2.25;;
54416;SDS011;40326;51.220;7.250;2023-02-26T00:48:46;7.78;;;2.28;;
54416;SDS011;40326;51.220;7.250;2023-02-26T00:51:18;5.93;;;2.10;;
54416;SDS011;40326;51.220;7.250;2023-02-26T00:53:46;6.10;;;2.35;;
54416;SDS011;40326;51.220;7.250;2023-02-26T00:56:13;6.63;;;2.45;;
54416;SDS011;40326;51.220;7.250;2023-02-26T00:58:38;5.55;;;1.85;;
54416;SDS011;40326;51.220;7.250;2023-02-26T01:01:03;6.15;;;2.53;;
54416;SDS011;40326;51.220;7.250;2023-02-26T01:03:30;5.13;;;2.13;;
54416;SDS011;40326;51.220;7.250;2023-02-26T01:05:55;7.53;;;2.50;;
54416;SDS011;40326;51.220;7.250;2023-02-26T01:08:27;5.13;;;1.88;;
54416;SDS011;40326;51.220;7.250;2023-02-26T01:10:55;8.05;;;2.40;;
54416;SDS011;40326;51.220;7.250;2023-02-26T01:13:21;5.25;;;2.10;;
54416;SDS011;40326;51.220;7.250;2023-02-26T01:15:51;4.82;;;2.20;;
54416;SDS011;40326;51.220;7.250;2023-02-26T01:18:23;6.70;;;1.98;;
54416;SDS011;40326;51.220;7.250;2023-02-26T01:20:51;11.52;;;2.67;;
54416;SDS011;40326;51.220;7.250;2023-02-26T01:23:19;5.88;;;2.42;;
54416;SDS011;40326;51.220;7.250;2023-02-26T01:25:51;6.97;;;2.00;;
54416;SDS011;40326;51.220;7.250;2023-02-26T01:28:19;8.60;;;2.55;;
54416;SDS011;40326;51.220;7.250;2023-02-26T01:30:44;6.10;;;2.42;;
54416;SDS011;40326;51.220;7.250;2023-02-26T01:35:42;5.00;;;2.28;;
54416;SDS011;40326;51.220;7.250;2023-02-26T01:43:10;5.95;;;2.55;;
54416;SDS011;40326;51.220;7.250;2023-02-26T01:45:52;7.82;;;2.55;;
54416;SDS011;40326;51.220;7.250;2023-02-26T01:48:36;8.55;;;2.15;;
54416;SDS011;40326;51.220;7.250;2023-02-26T01:51:01;4.97;;;2.33;;
54416;SDS011;40326;51.220;7.250;2023-02-26T01:53:28;8.25;;;2.30;;
54416;SDS011;40326;51.220;7.250;2023-02-26T01:56:01;5.38;;;2.22;;
54416;SDS011;40326;51.220;7.250;2023-02-26T01:58:28;3.85;;;2.08;;
54416;SDS011;40326;51.220;7.250;2023-02-26T02:00:55;5.78;;;2.13;;
54416;SDS011;40326;51.220;7.250;2023-02-26T02:03:20;8.30;;;2.40;;
54416;SDS011;40326;51.220;7.250;2023-02-26T02:05:47;5.55;;;2.53;;
54416;SDS011;40326;51.220;7.250;2023-02-26T02:08:13;5.82;;;2.22;;
54416;SDS011;40326;51.220;7.250;2023-02-26T02:10:40;5.05;;;2.03;;
54416;SDS011;40326;51.220;7.250;2023-02-26T02:13:13;4.90;;;2.10;;
54416;SDS011;40326;51.220;7.250;2023-02-26T02:18:34;8.80;;;2.15;;
54416;SDS011;40326;51.220;7.250;2023-02-26T02:23:46;6.07;;;2.30;;
54416;SDS011;40326;51.220;7.250;2023-02-26T02:28:42;6.38;;;2.67;;
54416;SDS011;40326;51.220;7.250;2023-02-26T02:31:21;4.90;;;2.03;;
54416;SDS011;40326;51.220;7.250;2023-02-26T02:36:28;4.93;;;2.00;;
54416;SDS011;40326;51.220;7.250;2023-02-26T02:38:58;6.30;;;2.42;;
54416;SDS011;40326;51.220;7.250;2023-02-26T02:41:26;5.53;;;2.08;;
54416;SDS011;40326;51.220;7.250;2023-02-26T02:43:51;6.38;;;2.40;;
54416;SDS011;40326;51.220;7.250;2023-02-26T02:46:20;7.03;;;2.33;;
54416;SDS011;40326;51.220;7.250;2023-02-26T02:48:55;7.20;;;2.30;;
54416;SDS011;40326;51.220;7.250;2023-02-26T02:51:28;6.72;;;2.47;;
54416;SDS011;40326;51.220;7.250;2023-02-26T02:53:56;6.18;;;2.22;;
54416;SDS011;40326;51.220;7.250;2023-02-26T02:56:57;6.25;;;2.33;;
54416;SDS011;40326;51.220;7.250;2023-02-26T02:59:20;5.70;;;2.20;;
54416;SDS011;40326;51.220;7.250;2023-02-26T03:01:47;9.77;;;2.80;;
54416;SDS011;40326;51.220;7.250;2023-02-26T03:04:14;8.18;;;2.13;;
54416;SDS011;40326;51.220;7.250;2023-02-26T03:06:40;8.15;;;2.30;;
54416;SDS011;40326;51.220;7.250;2023-02-26T03:09:07;7.78;;;2.78;;
54416;SDS011;40326;51.220;7.250;2023-02-26T03:11:32;5.50;;;2.05;;
54416;SDS011;40326;51.220;7.250;2023-02-26T03:13:58;4.38;;;2.00;;
54416;SDS011;40326;51.220;7.250;2023-02-26T03:24:38;8.75;;;2.85;;
54416;SDS011;40326;51.220;7.250;2023-02-26T03:27:13;6.40;;;2.22;;
54416;SDS011;40326;51.220;7.250;2023-02-26T03:29:45;5.20;;;2.15;;
54416;SDS011;40326;51.220;7.250;2023-02-26T03:32:13;3.35;;;1.67;;
54416;SDS011;40326;51.220;7.250;2023-02-26T03:34:41;5.40;;;2.53;;
54416;SDS011;40326;51.220;7.250;2023-02-26T03:37:16;6.40;;;2.55;;
54416;SDS011;40326;51.220;7.250;2023-02-26T03:39:45;4.57;;;1.63;;
54416;SDS011;40326;51.220;7.250;2023-02-26T03:44:45;3.58;;;1.63;;
54416;SDS011;40326;51.220;7.250;2023-02-26T03:47:12;4.65;;;1.77;;
54416;SDS011;40326;51.220;7.250;2023-02-26T03:49:40;8.00;;;2.40;;
54416;SDS011;40326;51.220;7.250;2023-02-26T03:52:08;5.70;;;1.95;;
54416;SDS011;40326;51.220;7.250;2023-02-26T03:54:34;4.32;;;1.92;;
54416;SDS011;40326;51.220;7.250;2023-02-26T03:57:01;3.42;;;1.83;;
54416;SDS011;40326;51.220;7.250;2023-02-26T03:59:27;4.05;;;1.90;;
54416;SDS011;40326;51.220;7.250;2023-02-26T04:01:53;6.35;;;2.13;;
54416;SDS011;40326;51.220;7.250;2023-02-26T04:04:28;3.47;;;1.70;;
54416;SDS011;40326;51.220;7.250;2023-02-26T04:06:55;4.85;;;1.90;;
54416;SDS011;40326;51.220;7.250;2023-02-26T04:09:20;6.20;;;1.83;;
54416;SDS011;40326;51.220;7.250;2023-02-26T04:11:46;4.53;;;1.92;;
54416;SDS011;40326;51.220;7.250;2023-02-26T04:14:13;5.57;;;2.13;;
54416;SDS011;40326;51.220;7.250;2023-02-26T04:16:38;3.30;;;1.70;;
54416;SDS011;40326;51.220;7.250;2023-02-26T04:19:03;4.43;;;1.85;;
54416;SDS011;40326;51.220;7.250;2023-02-26T04:21:28;5.07;;;1.95;;
54416;SDS011;40326;51.220;7.250;2023-02-26T04:23:53;8.63;;;2.17;;
54416;SDS011;40326;51.220;7.250;2023-02-26T04:26:19;4.20;;;1.90;;
54416;SDS011;40326;51.220;7.250;2023-02-26T04:28:44;4.95;;;1.83;;
54416;SDS011;40326;51.220;7.250;2023-02-26T04:31:09;6.28;;;1.77;;
54416;SDS011;40326;51.220;7.250;2023-02-26T04:33:34;5.35;;;2.03;;
54416;SDS011;40326;51.220;7.250;2023-02-26T04:36:00;6.15;;;1.95;;
54416;SDS011;40326;51.220;7.250;2023-02-26T04:38:25;4.82;;;2.00;;
54416;SDS011;40326;51.220;7.250;2023-02-26T04:40:50;7.47;;;2.05;;
54416;SDS011;40326;51.220;7.250;2023-02-26T04:43:16;4.55;;;2.13;;
54416;SDS011;40326;51.220;7.250;2023-02-26T04:45:43;7.60;;;2.55;;
54416;SDS011;40326;51.220;7.250;2023-02-26T04:48:09;10.32;;;1.80;;
54416;SDS011;40326;51.220;7.250;2023-02-26T04:50:34;5.00;;;2.33;;
54416;SDS011;40326;51.220;7.250;2023-02-26T04:52:59;4.90;;;1.85;;
54416;SDS011;40326;51.220;7.250;2023-02-26T04:55:24;6.18;;;2.35;;
54416;SDS011;40326;51.220;7.250;2023-02-26T04:57:49;5.63;;;2.22;;
54416;SDS011;40326;51.220;7.250;2023-02-26T05:00:15;12.88;;;2.00;;
54416;SDS011;40326;51.220;7.250;2023-02-26T05:02:40;6.13;;;1.85;;
54416;SDS011;40326;51.220;7.250;2023-02-26T05:05:06;4.55;;;1.77;;
54416;SDS011;40326;51.220;7.250;2023-02-26T05:07:31;9.65;;;2.30;;
54416;SDS011;40326;51.220;7.250;2023-02-26T05:09:56;6.68;;;2.28;;
54416;SDS011;40326;51.220;7.250;2023-02-26T05:12:21;5.07;;;2.15;;
54416;SDS011;40326;51.220;7.250;2023-02-26T05:14:46;6.72;;;2.53;;
54416;SDS011;40326;51.220;7.250;2023-02-26T05:17:12;4.88;;;2.20;;
54416;SDS011;40326;51.220;7.250;2023-02-26T05:19:37;5.72;;;1.98;;
54416;SDS011;40326;51.220;7.250;2023-02-26T05:22:02;5.22;;;1.90;;
54416;SDS011;40326;51.220;7.250;2023-02-26T05:24:27;4.05;;;2.17;;
54416;SDS011;40326;51.220;7.250;2023-02-26T05:26:53;3.90;;;2.20;;
54416;SDS011;40326;51.220;7.250;2023-02-26T05:29:18;6.65;;;2.30;;
54416;SDS011;40326;51.220;7.250;2023-02-26T05:31:43;5.15;;;2.65;;
54416;SDS011;40326;51.220;7.250;2023-02-26T05:34:08;4.13;;;1.65;;
54416;SDS011;40326;51.220;7.250;2023-02-26T05:36:34;5.65;;;2.00;;
54416;SDS011;40326;51.220;7.250;2023-02-26T05:38:59;5.00;;;2.20;;
54416;SDS011;40326;51.220;7.250;2023-02-26T05:41:24;6.10;;;2.70;;
54416;SDS011;40326;51.220;7.250;2023-02-26T05:43:49;3.97;;;2.20;;
54416;SDS011;40326;51.220;7.250;2023-02-26T05:46:14;5.47;;;2.15;;
54416;SDS011;40326;51.220;7.250;2023-02-26T05:48:40;8.15;;;2.38;;
54416;SDS011;40326;51.220;7.250;2023-02-26T05:51:05;5.18;;;2.17;;
54416;SDS011;40326;51.220;7.250;2023-02-26T05:53:30;4.00;;;2.10;;
54416;SDS011;40326;51.220;7.250;2023-02-26T05:55:55;5.03;;;2.15;;
54416;SDS011;40326;51.220;7.250;2023-02-26T05:58:20;6.28;;;2.30;;
54416;SDS011;40326;51.220;7.250;2023-02-26T06:00:45;7.18;;;2.30;;
54416;SDS011;40326;51.220;7.250;2023-02-26T06:03:11;7.18;;;2.88;;
54416;SDS011;40326;51.220;7.250;2023-02-26T06:05:36;5.65;;;2.40;;
54416;SDS011;40326;51.220;7.250;2023-02-26T06:08:01;6.28;;;2.00;;
54416;SDS011;40326;51.220;7.250;2023-02-26T06:10:27;10.48;;;1.98;;
54416;SDS011;40326;51.220;7.250;2023-02-26T06:12:52;7.28;;;2.42;;
54416;SDS011;40326;51.220;7.250;2023-02-26T06:15:17;7.80;;;2.47;;
54416;SDS011;40326;51.220;7.250;2023-02-26T06:17:42;5.95;;;2.50;;
54416;SDS011;40326;51.220;7.250;2023-02-26T06:20:08;6.88;;;2.50;;
54416;SDS011;40326;51.220;7.250;2023-02-26T06:22:33;7.15;;;2.55;;
54416;SDS011;40326;51.220;7.250;2023-02-26T06:24:58;4.97;;;2.35;;
54416;SDS011;40326;51.220;7.250;2023-02-26T06:27:23;6.57;;;2.30;;
54416;SDS011;40326;51.220;7.250;2023-02-26T06:29:49;6.65;;;2.35;;
54416;SDS011;40326;51.220;7.250;2023-02-26T06:32:14;4.60;;;2.63;;
54416;SDS011;40326;51.220;7.250;2023-02-26T06:34:39;5.68;;;2.10;;
54416;SDS011;40326;51.220;7.250;2023-02-26T06:37:04;6.55;;;2.58;;
54416;SDS011;40326;51.220;7.250;2023-02-26T06:39:29;5.53;;;2.40;;
54416;SDS011;40326;51.220;7.250;2023-02-26T06:41:55;7.45;;;2.72;;
54416;SDS011;40326;51.220;7.250;2023-02-26T06:44:20;7.43;;;2.70;;
54416;SDS011;40326;51.220;7.250;2023-02-26T06:46:45;7.07;;;2.45;;
54416;SDS011;40326;51.220;7.250;2023-02-26T06:49:10;7.07;;;2.78;;
54416;SDS011;40326;51.220;7.250;2023-02-26T06:51:35;6.30;;;2.47;;
54416;SDS011;40326;51.220;7.250;2023-02-26T06:54:01;4.50;;;2.35;;
54416;SDS011;40326;51.220;7.250;2023-02-26T06:56:26;7.75;;;2.72;;
54416;SDS011;40326;51.220;7.250;2023-02-26T06:58:51;6.32;;;2.22;;
54416;SDS011;40326;51.220;7.250;2023-02-26T07:01:16;7.55;;;2.67;;
54416;SDS011;40326;51.220;7.250;2023-02-26T07:03:42;5.63;;;2.40;;
54416;SDS011;40326;51.220;7.250;2023-02-26T07:06:08;4.75;;;2.42;;
54416;SDS011;40326;51.220;7.250;2023-02-26T07:08:34;7.68;;;2.72;;
54416;SDS011;40326;51.220;7.250;2023-02-26T07:10:59;6.60;;;2.33;;
54416;SDS011;40326;51.220;7.250;2023-02-26T07:13:25;6.72;;;2.85;;
54416;SDS011;40326;51.220;7.250;2023-02-26T07:15:50;4.75;;;2.35;;
54416;SDS011;40326;51.220;7.250;2023-02-26T07:18:15;6.35;;;2.65;;
54416;SDS011;40326;51.220;7.250;2023-02-26T07:20:41;5.43;;;2.47;;
54416;SDS011;40326;51.220;7.250;2023-02-26T07:23:06;5.50;;;2.83;;
54416;SDS011;40326;51.220;7.250;2023-02-26T07:25:31;3.83;;;2.30;;
54416;SDS011;40326;51.220;7.250;2023-02-26T07:27:57;5.68;;;2.85;;
54416;SDS011;40326;51.220;7.250;2023-02-26T07:30:24;6.95;;;2.28;;
54416;SDS011;40326;51.220;7.250;2023-02-26T07:32:49;7.75;;;2.50;;
54416;SDS011;40326;51.220;7.250;2023-02-26T07:35:14;4.57;;;2.00;;
54416;SDS011;40326;51.220;7.250;2023-02-26T07:37:39;8.13;;;2.70;;
54416;SDS011;40326;51.220;7.250;2023-02-26T07:40:05;5.80;;;2.53;;
54416;SDS011;40326;51.220;7.250;2023-02-26T07:42:30;3.85;;;2.28;;
54416;SDS011;40326;51.220;7.250;2023-02-26T07:44:55;6.07;;;2.42;;
54416;SDS011;40326;51.220;7.250;2023-02-26T07:47:20;7.65;;;2.25;;
54416;SDS011;40326;51.220;7.250;2023-02-26T07:49:46;7.18;;;2.55;;
54416;SDS011;40326;51.220;7.250;2023-02-26T07:52:11;5.57;;;2.30;;
54416;SDS011;40326;51.220;7.250;2023-02-26T07:54:36;4.20;;;2.13;;
54416;SDS011;40326;51.220;7.250;2023-02-26T07:57:02;4.13;;;2.30;;
54416;SDS011;40326;51.220;7.250;2023-02-26T07:59:27;4.55;;;2.28;;
54416;SDS011;40326;51.220;7.250;2023-02-26T08:01:52;6.45;;;2.28;;
54416;SDS011;40326;51.220;7.250;2023-02-26T08:04:18;5.68;;;2.40;;
54416;SDS011;40326;51.220;7.250;2023-02-26T08:06:43;6.13;;;2.30;;
54416;SDS011;40326;51.220;7.250;2023-02-26T08:09:08;6.78;;;2.42;;
54416;SDS011;40326;51.220;7.250;2023-02-26T08:11:33;4.40;;;2.10;;
54416;SDS011;40326;51.220;7.250;2023-02-26T08:14:03;4.55;;;2.17;;
54416;SDS011;40326;51.220;7.250;2023-02-26T08:16:28;3.80;;;2.10;;
54416;SDS011;40326;51.220;7.250;2023-02-26T08:18:53;5.90;;;2.35;;
54416;SDS011;40326;51.220;7.250;2023-02-26T08:21:19;4.80;;;2.00;;
54416;SDS011;40326;51.220;7.250;2023-02-26T08:23:44;6.65;;;2.05;;
54416;SDS011;40326;51.220;7.250;2023-02-26T08:26:10;5.07;;;1.90;;
54416;SDS011;40326;51.220;7.250;2023-02-26T08:28:36;6.05;;;1.92;;
54416;SDS011;40326;51.220;7.250;2023-02-26T08:31:01;4.65;;;1.98;;
54416;SDS011;40326;51.220;7.250;2023-02-26T08:33:27;4.05;;;1.83;;
54416;SDS011;40326;51.220;7.250;2023-02-26T08:35:52;6.35;;;2.28;;
54416;SDS011;40326;51.220;7.250;2023-02-26T08:38:18;4.57;;;1.98;;
54416;SDS011;40326;51.220;7.250;2023-02-26T08:40:43;3.90;;;2.05;;
54416;SDS011;40326;51.220;7.250;2023-02-26T08:43:08;4.38;;;2.03;;
54416;SDS011;40326;51.220;7.250;2023-02-26T08:45:35;7.65;;;2.10;;
54416;SDS011;40326;51.220;7.250;2023-02-26T08:48:01;5.75;;;2.60;;
54416;SDS011;40326;51.220;7.250;2023-02-26T08:50:26;4.20;;;1.95;;
54416;SDS011;40326;51.220;7.250;2023-02-26T08:52:51;5.72;;;2.03;;
54416;SDS011;40326;51.220;7.250;2023-02-26T08:55:16;3.90;;;1.88;;
54416;SDS011;40326;51.220;7.250;2023-02-26T08:57:42;3.58;;;2.03;;
54416;SDS011;40326;51.220;7.250;2023-02-26T09:00:07;4.93;;;1.95;;
54416;SDS011;40326;51.220;7.250;2023-02-26T09:02:36;5.07;;;2.05;;
54416;SDS011;40326;51.220;7.250;2023-02-26T09:05:01;4.93;;;1.73;;
54416;SDS011;40326;51.220;7.250;2023-02-26T09:07:26;4.63;;;1.65;;
54416;SDS011;40326;51.220;7.250;2023-02-26T09:09:51;3.80;;;1.77;;
54416;SDS011;40326;51.220;7.250;2023-02-26T09:12:17;3.38;;;1.67;;
54416;SDS011;40326;51.220;7.250;2023-02-26T09:14:42;4.28;;;1.67;;
54416;SDS011;40326;51.220;7.250;2023-02-26T09:17:07;3.38;;;1.70;;
54416;SDS011;40326;51.220;7.250;2023-02-26T09:19:32;4.10;;;2.22;;
54416;SDS011;40326;51.220;7.250;2023-02-26T09:21:58;4.30;;;1.88;;
54416;SDS011;40326;51.220;7.250;2023-02-26T09:24:23;2.67;;;1.48;;
54416;SDS011;40326;51.220;7.250;2023-02-26T09:26:48;10.05;;;1.80;;
54416;SDS011;40326;51.220;7.250;2023-02-26T09:29:13;7.90;;;1.70;;
54416;SDS011;40326;51.220;7.250;2023-02-26T09:31:38;4.80;;;1.30;;
54416;SDS011;40326;51.220;7.250;2023-02-26T09:34:04;3.75;;;1.60;;
54416;SDS011;40326;51.220;7.250;2023-02-26T09:36:29;4.15;;;1.60;;
54416;SDS011;40326;51.220;7.250;2023-02-26T09:38:55;4.00;;;1.55;;
54416;SDS011;40326;51.220;7.250;2023-02-26T09:41:21;4.82;;;1.55;;
54416;SDS011;40326;51.220;7.250;2023-02-26T09:44:06;3.35;;;1.67;;
54416;SDS011;40326;51.220;7.250;2023-02-26T09:49:01;3.58;;;1.48;;
54416;SDS011;40326;51.220;7.250;2023-02-26T09:51:27;3.08;;;1.50;;
54416;SDS011;40326;51.220;7.250;2023-02-26T09:53:53;3.92;;;1.75;;
54416;SDS011;40326;51.220;7.250;2023-02-26T09:56:20;4.13;;;1.60;;
54416;SDS011;40326;51.220;7.250;2023-02-26T09:58:47;3.13;;;1.48;;
54416;SDS011;40326;51.220;7.250;2023-02-26T10:01:23;2.50;;;1.48;;
54416;SDS011;40326;51.220;7.250;2023-02-26T10:06:38;3.97;;;1.42;;
54416;SDS011;40326;51.220;7.250;2023-02-26T10:09:42;2.80;;;1.20;;
54416;SDS011;40326;51.220;7.250;2023-02-26T10:11:59;2.70;;;1.25;;
54416;SDS011;40326;51.220;7.250;2023-02-26T10:14:31;5.30;;;1.55;;
54416;SDS011;40326;51.220;7.250;2023-02-26T10:19:42;3.65;;;1.30;;
54416;SDS011;40326;51.220;7.250;2023-02-26T10:22:15;2.90;;;1.33;;
54416;SDS011;40326;51.220;7.250;2023-02-26T10:24:50;3.35;;;1.20;;
54416;SDS011;40326;51.220;7.250;2023-02-26T10:27:20;2.13;;;1.13;;
54416;SDS011;40326;51.220;7.250;2023-02-26T10:29:57;3.13;;;1.33;;
54416;SDS011;40326;51.220;7.250;2023-02-26T10:32:47;4.00;;;1.30;;
54416;SDS011;40326;51.220;7.250;2023-02-26T10:35:15;3.55;;;1.42;;
54416;SDS011;40326;51.220;7.250;2023-02-26T10:38:01;4.38;;;1.35;;
54416;SDS011;40326;51.220;7.250;2023-02-26T10:40:33;3.53;;;1.50;;
54416;SDS011;40326;51.220;7.250;2023-02-26T10:43:18;3.60;;;1.60;;
54416;SDS011;40326;51.220;7.250;2023-02-26T10:51:19;3.63;;;1.27;;
54416;SDS011;40326;51.220;7.250;2023-02-26T10:53:46;2.83;;;1.20;;
54416;SDS011;40326;51.220;7.250;2023-02-26T10:56:17;3.10;;;1.30;;
54416;SDS011;40326;51.220;7.250;2023-02-26T10:58:44;6.93;;;2.15;;
54416;SDS011;40326;51.220;7.250;2023-02-26T11:01:15;2.53;;;1.30;;
54416;SDS011;40326;51.220;7.250;2023-02-26T11:03:41;2.58;;;1.15;;
54416;SDS011;40326;51.220;7.250;2023-02-26T11:06:07;2.90;;;1.30;;
54416;SDS011;40326;51.220;7.250;2023-02-26T11:11:00;4.45;;;1.52;;
54416;SDS011;40326;51.220;7.250;2023-02-26T11:13:27;2.65;;;1.50;;
54416;SDS011;40326;51.220;7.250;2023-02-26T11:15:53;6.55;;;1.60;;
54416;SDS011;40326;51.220;7.250;2023-02-26T11:18:29;3.22;;;1.45;;
54416;SDS011;40326;51.220;7.250;2023-02-26T11:20:57;5.35;;;1.67;;
54416;SDS011;40326;51.220;7.250;2023-02-26T11:23:23;4.47;;;1.40;;
54416;SDS011;40326;51.220;7.250;2023-02-26T11:26:00;3.67;;;1.35;;
54416;SDS011;40326;51.220;7.250;2023-02-26T11:28:30;4.07;;;1.50;;
54416;SDS011;40326;51.220;7.250;2023-02-26T11:30:55;2.38;;;1.10;;
54416;SDS011;40326;51.220;7.250;2023-02-26T11:33:28;3.30;;;1.30;;
54416;SDS011;40326;51.220;7.250;2023-02-26T11:35:58;4.22;;;1.42;;
54416;SDS011;40326;51.220;7.250;2023-02-26T11:38:24;2.92;;;1.27;;
54416;SDS011;40326;51.220;7.250;2023-02-26T11:40:54;3.58;;;1.20;;
54416;SDS011;40326;51.220;7.250;2023-02-26T11:43:20;3.35;;;1.48;;
54416;SDS011;40326;51.220;7.250;2023-02-26T11:45:47;3.80;;;1.20;;
54416;SDS011;40326;51.220;7.250;2023-02-26T11:48:14;3.55;;;1.23;;
54416;SDS011;40326;51.220;7.250;2023-02-26T11:50:43;3.80;;;1.23;;
54416;SDS011;40326;51.220;7.250;2023-02-26T11:53:17;3.45;;;1.40;;
54416;SDS011;40326;51.220;7.250;2023-02-26T11:55:43;2.05;;;1.27;;
54416;SDS011;40326;51.220;7.250;2023-02-26T11:58:19;2.25;;;1.25;;
54416;SDS011;40326;51.220;7.250;2023-02-26T12:00:45;2.78;;;1.60;;
54416;SDS011;40326;51.220;7.250;2023-02-26T12:03:22;4.65;;;1.40;;
54416;SDS011;40326;51.220;7.250;2023-02-26T12:05:48;2.30;;;1.00;;
54416;SDS011;40326;51.220;7.250;2023-02-26T12:13:30;5.38;;;1.70;;
54416;SDS011;40326;51.220;7.250;2023-02-26T12:16:02;2.15;;;1.10;;
54416;SDS011;40326;51.220;7.250;2023-02-26T12:18:37;2.67;;;1.30;;
54416;SDS011;40326;51.220;7.250;2023-02-26T12:23:57;2.15;;;1.17;;
54416;SDS011;40326;51.220;7.250;2023-02-26T12:43:46;2.60;;;1.30;;
54416;SDS011;40326;51.220;7.250;2023-02-26T12:46:15;4.43;;;1.50;;
54416;SDS011;40326;51.220;7.250;2023-02-26T12:48:47;2.22;;;1.20;;
54416;SDS011;40326;51.220;7.250;2023-02-26T13:06:50;2.45;;;1.00;;
54416;SDS011;40326;51.220;7.250;2023-02-26T13:14:37;4.07;;;1.50;;
54416;SDS011;40326;51.220;7.250;2023-02-26T13:17:23;3.08;;;1.30;;
54416;SDS011;40326;51.220;7.250;2023-02-26T13:19:52;4.07;;;1.67;;
54416;SDS011;40326;51.220;7.250;2023-02-26T13:22:20;3.67;;;1.63;;
54416;SDS011;40326;51.220;7.250;2023-02-26T13:24:50;3.58;;;1.20;;
54416;SDS011;40326;51.220;7.250;2023-02-26T13:27:17;3.40;;;1.33;;
54416;SDS011;40326;51.220;7.250;2023-02-26T13:30:16;2.67;;;1.30;;
54416;SDS011;40326;51.220;7.250;2023-02-26T13:32:33;3.63;;;1.40;;
54416;SDS011;40326;51.220;7.250;2023-02-26T13:35:03;2.58;;;1.30;;
54416;SDS011;40326;51.220;7.250;2023-02-26T13:37:31;3.92;;;1.30;;
54416;SDS011;40326;51.220;7.250;2023-02-26T13:40:22;3.70;;;1.13;;
54416;SDS011;40326;51.220;7.250;2023-02-26T13:50:25;4.90;;;1.30;;
54416;SDS011;40326;51.220;7.250;2023-02-26T13:52:54;3.05;;;1.27;;
54416;SDS011;40326;51.220;7.250;2023-02-26T13:55:53;2.67;;;1.48;;
54416;SDS011;40326;51.220;7.250;2023-02-26T13:59:01;2.35;;;1.20;;
54416;SDS011;40326;51.220;7.250;2023-02-26T14:03:29;3.10;;;1.40;;
54416;SDS011;40326;51.220;7.250;2023-02-26T14:06:06;3.13;;;1.35;;
54416;SDS011;40326;51.220;7.250;2023-02-26T14:11:03;2.28;;;1.33;;
54416;SDS011;40326;51.220;7.250;2023-02-26T14:13:32;2.83;;;1.20;;
54416;SDS011;40326;51.220;7.250;2023-02-26T14:15:58;1.58;;;1.10;;
54416;SDS011;40326;51.220;7.250;2023-02-26T14:20:50;2.72;;;1.30;;
54416;SDS011;40326;51.220;7.250;2023-02-26T14:23:26;4.07;;;1.10;;
54416;SDS011;40326;51.220;7.250;2023-02-26T14:25:59;3.17;;;1.17;;
54416;SDS011;40326;51.220;7.250;2023-02-26T14:31:03;2.53;;;1.15;;
54416;SDS011;40326;51.220;7.250;2023-02-26T14:33:30;3.42;;;1.17;;
54416;SDS011;40326;51.220;7.250;2023-02-26T14:35:56;2.88;;;1.15;;
54416;SDS011;40326;51.220;7.250;2023-02-26T14:38:28;3.70;;;1.30;;
54416;SDS011;40326;51.220;7.250;2023-02-26T14:41:02;2.15;;;1.15;;
54416;SDS011;40326;51.220;7.250;2023-02-26T14:43:37;2.57;;;1.30;;
54416;SDS011;40326;51.220;7.250;2023-02-26T14:46:03;2.80;;;1.10;;
54416;SDS011;40326;51.220;7.250;2023-02-26T14:48:29;4.30;;;1.27;;
54416;SDS011;40326;51.220;7.250;2023-02-26T14:51:19;4.03;;;1.23;;
54416;SDS011;40326;51.220;7.250;2023-02-26T15:09:18;4.93;;;1.30;;
54416;SDS011;40326;51.220;7.250;2023-02-26T15:14:33;3.65;;;1.42;;
54416;SDS011;40326;51.220;7.250;2023-02-26T15:17:13;1.88;;;1.10;;
54416;SDS011;40326;51.220;7.250;2023-02-26T15:19:54;3.08;;;1.83;;
54416;SDS011;40326;51.220;7.250;2023-02-26T15:24:52;3.10;;;1.20;;
54416;SDS011;40326;51.220;7.250;2023-02-26T15:27:18;1.75;;;1.10;;
54416;SDS011;40326;51.220;7.250;2023-02-26T15:29:44;2.08;;;1.38;;
54416;SDS011;40326;51.220;7.250;2023-02-26T15:32:23;1.85;;;1.20;;
54416;SDS011;40326;51.220;7.250;2023-02-26T15:35:03;3.63;;;1.20;;
54416;SDS011;40326;51.220;7.250;2023-02-26T15:37:29;2.88;;;1.23;;
54416;SDS011;40326;51.220;7.250;2023-02-26T15:39:57;4.13;;;1.40;;
54416;SDS011;40326;51.220;7.250;2023-02-26T15:42:28;2.38;;;1.13;;
54416;SDS011;40326;51.220;7.250;2023-02-26T15:44:55;2.80;;;1.30;;
54416;SDS011;40326;51.220;7.250;2023-02-26T15:47:22;3.97;;;1.45;;
54416;SDS011;40326;51.220;7.250;2023-02-26T15:49:47;2.33;;;1.20;;
54416;SDS011;40326;51.220;7.250;2023-02-26T15:52:17;2.22;;;1.30;;
54416;SDS011;40326;51.220;7.250;2023-02-26T15:54:45;2.20;;;1.30;;
54416;SDS011;40326;51.220;7.250;2023-02-26T15:57:10;2.63;;;1.33;;
54416;SDS011;40326;51.220;7.250;2023-02-26T15:59:41;3.25;;;1.33;;
54416;SDS011;40326;51.220;7.250;2023-02-26T16:02:09;3.88;;;1.30;;
54416;SDS011;40326;51.220;7.250;2023-02-26T16:04:35;4.43;;;1.50;;
54416;SDS011;40326;51.220;7.250;2023-02-26T16:07:00;3.85;;;1.50;;
54416;SDS011;40326;51.220;7.250;2023-02-26T16:11:52;3.72;;;1.20;;
54416;SDS011;40326;51.220;7.250;2023-02-26T16:14:23;3.38;;;1.33;;
54416;SDS011;40326;51.220;7.250;2023-02-26T16:16:50;2.97;;;1.20;;
54416;SDS011;40326;51.220;7.250;2023-02-26T16:19:16;2.30;;;1.35;;
54416;SDS011;40326;51.220;7.250;2023-02-26T16:21:44;4.22;;;1.55;;
54416;SDS011;40326;51.220;7.250;2023-02-26T16:24:14;3.90;;;1.35;;
54416;SDS011;40326;51.220;7.250;2023-02-26T16:26:48;3.55;;;1.40;;
54416;SDS011;40326;51.220;7.250;2023-02-26T16:29:16;4.00;;;1.40;;
54416;SDS011;40326;51.220;7.250;2023-02-26T16:31:42;3.35;;;1.55;;
54416;SDS011;40326;51.220;7.250;2023-02-26T16:34:27;2.35;;;1.30;;
54416;SDS011;40326;51.220;7.250;2023-02-26T16:36:52;3.92;;;1.38;;
54416;SDS011;40326;51.220;7.250;2023-02-26T16:39:22;4.18;;;1.52;;
54416;SDS011;40326;51.220;7.250;2023-02-26T16:41:59;2.28;;;1.13;;
54416;SDS011;40326;51.220;7.250;2023-02-26T16:46:56;2.67;;;1.40;;
54416;SDS011;40326;51.220;7.250;2023-02-26T16:49:34;3.50;;;1.48;;
54416;SDS011;40326;51.220;7.250;2023-02-26T16:52:00;2.75;;;1.50;;
54416;SDS011;40326;51.220;7.250;2023-02-26T16:56:55;3.15;;;1.60;;
54416;SDS011;40326;51.220;7.250;2023-02-26T16:59:22;3.75;;;1.55;;
54416;SDS011;40326;51.220;7.250;2023-02-26T17:01:55;4.45;;;1.60;;
54416;SDS011;40326;51.220;7.250;2023-02-26T17:04:24;3.80;;;1.60;;
54416;SDS011;40326;51.220;7.250;2023-02-26T17:06:51;3.58;;;1.63;;
54416;SDS011;40326;51.220;7.250;2023-02-26T17:09:29;4.05;;;1.80;;
54416;SDS011;40326;51.220;7.250;2023-02-26T17:14:59;3.78;;;1.67;;
54416;SDS011;40326;51.220;7.250;2023-02-26T17:17:24;3.80;;;1.70;;